ポートオブスペイン の空港の天気 - METARとTAF

ピアルコ国際空港(ポートオブスペイン) ( TTPP / POS ) - トリニダード・トバゴ ポートオブスペイン (トリニダード島)
飛行場実況気象(Metar)
観測時間10/21 12:00 AST (10/21 16:00 UTC)
風向・風速東南東 4m/s
視程10km以上
天気現象
全天の4割程度の雲 雲底高度 760m
気温33℃
湿度59%
気圧1012hPa
METARTTPP 211600Z 11008KT 9999 SCT025 33/24 Q1012 NOSIG
過去の天気等 Google飛行場航空写真 Wunderground天気予報

過去48時間のMETAR

飛行場予報(TAF)
発表時間: 10/21 06:00 AST (10/21 10:00 UTC)
予報対象時間: 21日8時 AST ~ 22日8時 AST
風向・風速東南東 5m/s
視程10km以上
全天の4割程度の雲 雲底高度 670m
21日13時 AST ~ 21日17時 AST に一時的に
視程8000m
天気現象しゅう雨
全天の4割程度の雲 雲底高度 460m
21日20時 AST ~ 21日22時 AST に徐々に
風向・風速静穏
少しの雲 雲底高度 490m
TAF TTPP 211000Z 2112/2212 11010KT 9999 SCT022
TEMPO 2117/2121 8000 SHRA SCT015
BECMG 2200/2202 00000KT FEW016